createdAt,value
2023-04-20T00:02:03.418Z,11.20
2023-04-20T00:05:25.556Z,11.30
2023-04-20T00:08:47.625Z,11.20
2023-04-20T00:12:09.612Z,11.20
2023-04-20T00:15:31.682Z,11.20
2023-04-20T00:18:53.673Z,11.20
2023-04-20T00:22:16.023Z,11.20
2023-04-20T00:25:38.097Z,11.20
2023-04-20T00:29:00.069Z,11.20
2023-04-20T00:32:22.088Z,11.30
2023-04-20T00:35:47.444Z,11.30
2023-04-20T00:39:11.017Z,11.20
2023-04-20T00:42:33.304Z,11.30
2023-04-20T00:45:55.513Z,11.30
2023-04-20T00:49:18.957Z,11.30
2023-04-20T00:52:41.775Z,11.20
2023-04-20T00:56:04.083Z,11.20
2023-04-20T00:59:26.143Z,11.10
2023-04-20T01:02:49.063Z,11.00
2023-04-20T01:06:12.155Z,10.90
2023-04-20T01:09:34.352Z,10.90
2023-04-20T01:12:56.399Z,10.80
2023-04-20T01:16:18.554Z,10.80
2023-04-20T01:19:42.124Z,10.80
2023-04-20T01:23:04.120Z,10.70
2023-04-20T01:26:26.676Z,10.60
2023-04-20T01:29:48.684Z,10.60
2023-04-20T01:33:10.792Z,10.60
2023-04-20T01:36:33.727Z,10.70
2023-04-20T01:39:56.120Z,10.70
2023-04-20T01:43:18.645Z,10.70
2023-04-20T01:46:41.173Z,10.60
2023-04-20T01:50:03.265Z,10.60
2023-04-20T01:53:28.179Z,10.60
2023-04-20T01:56:50.264Z,10.60
2023-04-20T02:00:13.866Z,10.60
2023-04-20T02:03:39.226Z,10.60
2023-04-20T02:07:01.295Z,10.50
2023-04-20T02:10:23.927Z,10.60
2023-04-20T02:13:45.920Z,10.60
2023-04-20T02:17:08.556Z,10.60
2023-04-20T02:20:30.829Z,10.60
2023-04-20T02:23:52.873Z,10.60
2023-04-20T02:27:14.899Z,10.60
2023-04-20T02:30:36.992Z,10.60
2023-04-20T02:33:59.179Z,10.60
2023-04-20T02:37:22.660Z,10.60
2023-04-20T02:40:44.626Z,10.60
2023-04-20T02:44:06.788Z,10.60
2023-04-20T02:47:32.165Z,10.60
2023-04-20T02:50:56.855Z,10.70
2023-04-20T02:54:21.169Z,10.60
2023-04-20T02:57:44.285Z,10.60
2023-04-20T03:01:07.231Z,10.60
2023-04-20T03:04:32.175Z,10.50
2023-04-20T03:08:11.276Z,10.50
2023-04-20T03:11:33.759Z,10.40
2023-04-20T03:14:56.297Z,10.40
2023-04-20T03:18:38.199Z,10.40
2023-04-20T03:22:00.242Z,10.40
2023-04-20T03:25:22.848Z,10.40
2023-04-20T03:28:52.161Z,10.50
2023-04-20T03:32:18.215Z,10.50
2023-04-20T03:35:40.451Z,10.50
2023-04-20T03:39:02.535Z,10.50
2023-04-20T03:42:24.826Z,10.50
2023-04-20T03:45:47.040Z,10.50
2023-04-20T03:49:12.517Z,10.50
2023-04-20T03:52:36.389Z,10.40
2023-04-20T03:56:00.817Z,10.40
2023-04-20T03:59:23.280Z,10.40
2023-04-20T04:02:46.382Z,10.40
2023-04-20T04:06:12.009Z,10.40
2023-04-20T04:09:34.023Z,10.50
2023-04-20T04:12:56.174Z,10.50
2023-04-20T04:16:18.200Z,10.50
2023-04-20T04:19:40.455Z,10.60
2023-04-20T04:23:02.685Z,10.60
2023-04-20T04:26:31.914Z,10.70
2023-04-20T04:29:54.563Z,10.60
2023-04-20T04:33:19.106Z,10.70
2023-04-20T04:36:44.106Z,10.70
2023-04-20T04:40:09.459Z,10.70
2023-04-20T04:43:33.699Z,10.80
2023-04-20T04:47:06.523Z,10.80
2023-04-20T04:50:28.660Z,10.80
2023-04-20T04:53:50.820Z,10.90
2023-04-20T04:57:13.139Z,10.90
2023-04-20T05:00:35.978Z,11.00
2023-04-20T05:03:58.193Z,11.00
2023-04-20T05:07:20.444Z,11.00
2023-04-20T05:10:42.412Z,11.00
2023-04-20T05:14:04.397Z,11.10
2023-04-20T05:17:26.429Z,11.20
2023-04-20T05:20:48.459Z,11.20
2023-04-20T05:24:10.539Z,11.30
2023-04-20T05:27:33.974Z,11.40
2023-04-20T05:30:56.008Z,11.50
2023-04-20T05:34:18.575Z,11.60
2023-04-20T05:37:40.976Z,11.60
2023-04-20T05:41:04.828Z,11.70
2023-04-20T05:44:26.882Z,11.90
2023-04-20T05:47:56.283Z,12.20
2023-04-20T05:51:18.413Z,12.30
2023-04-20T05:54:40.446Z,12.30
2023-04-20T05:58:02.447Z,12.10
2023-04-20T06:01:24.386Z,12.10
2023-04-20T06:04:46.745Z,12.10
2023-04-20T06:08:08.829Z,12.10
2023-04-20T06:11:31.385Z,12.20
2023-04-20T06:14:53.464Z,12.00
2023-04-20T06:18:15.710Z,12.00
2023-04-20T06:21:37.808Z,12.10
2023-04-20T06:25:00.790Z,11.90
2023-04-20T06:28:22.749Z,11.80
2023-04-20T06:31:44.813Z,11.80
2023-04-20T06:35:07.731Z,11.70
2023-04-20T06:38:29.708Z,11.70
2023-04-20T06:41:51.653Z,11.90
2023-04-20T06:45:18.229Z,11.90
2023-04-20T06:48:40.284Z,11.90
2023-04-20T06:52:02.269Z,12.10
2023-04-20T06:55:24.268Z,12.30
2023-04-20T06:58:46.276Z,12.60
2023-04-20T07:02:08.445Z,12.60
2023-04-20T07:05:30.865Z,12.50
2023-04-20T07:08:52.818Z,12.30
2023-04-20T07:12:15.875Z,12.70
2023-04-20T07:15:38.157Z,12.60
2023-04-20T07:19:00.167Z,12.10
2023-04-20T07:22:22.889Z,11.90
2023-04-20T07:25:44.871Z,12.00
2023-04-20T07:29:06.839Z,12.00
2023-04-20T07:32:28.859Z,11.90
2023-04-20T07:35:51.052Z,12.00
2023-04-20T07:39:13.126Z,11.80
2023-04-20T07:42:37.176Z,12.00
2023-04-20T07:45:59.386Z,12.10
2023-04-20T07:49:21.375Z,12.20
2023-04-20T07:52:46.614Z,12.40
2023-04-20T07:56:08.613Z,12.70
2023-04-20T07:59:30.861Z,12.80
2023-04-20T08:02:53.258Z,12.80
2023-04-20T08:06:15.453Z,12.90
2023-04-20T08:09:37.581Z,13.00
2023-04-20T08:12:59.620Z,13.10
2023-04-20T08:16:21.772Z,13.20
2023-04-20T08:19:45.877Z,13.50
2023-04-20T08:23:08.233Z,13.80
2023-04-20T08:26:30.275Z,14.10
2023-04-20T08:29:52.240Z,14.50
2023-04-20T08:33:14.281Z,14.60
2023-04-20T08:36:36.319Z,14.60
2023-04-20T08:39:58.279Z,14.70
2023-04-20T08:43:22.010Z,14.80
2023-04-20T08:46:47.175Z,14.90
2023-04-20T08:50:09.794Z,15.50
2023-04-20T08:53:32.926Z,15.40
2023-04-20T08:56:54.891Z,14.90
2023-04-20T09:00:17.729Z,14.90
2023-04-20T09:03:42.995Z,15.50
2023-04-20T09:07:06.142Z,16.10
2023-04-20T09:10:40.522Z,16.40
2023-04-20T09:14:04.598Z,17.30
2023-04-20T09:17:37.395Z,17.80
2023-04-20T09:21:08.724Z,18.10
2023-04-20T09:24:35.757Z,18.20
2023-04-20T09:27:59.603Z,17.80
2023-04-20T09:31:22.950Z,17.80
2023-04-20T09:34:45.297Z,17.40
2023-04-20T09:38:11.227Z,16.50
2023-04-20T09:41:35.630Z,16.00
2023-04-20T09:44:58.203Z,15.30
2023-04-20T09:48:21.838Z,15.00
2023-04-20T09:51:47.333Z,14.70
2023-04-20T09:55:11.449Z,14.50
2023-04-20T09:58:35.118Z,14.50
2023-04-20T10:01:57.164Z,14.50
2023-04-20T10:05:19.413Z,14.40
2023-04-20T10:08:42.453Z,14.20
2023-04-20T10:12:09.547Z,14.10
2023-04-20T10:15:39.627Z,14.00
2023-04-20T10:19:06.316Z,14.00
2023-04-20T10:22:34.550Z,14.00
2023-04-20T10:25:58.305Z,13.90
2023-04-20T10:29:27.365Z,13.70
2023-04-20T10:32:49.445Z,13.60
2023-04-20T10:36:28.014Z,13.50
2023-04-20T10:39:49.959Z,13.40
2023-04-20T10:43:21.275Z,13.40
2023-04-20T10:46:43.355Z,13.30
2023-04-20T10:50:15.674Z,12.80
2023-04-20T10:53:37.721Z,12.30
2023-04-20T10:56:59.711Z,12.00
2023-04-20T11:00:25.738Z,11.70
2023-04-20T11:03:53.791Z,11.50
2023-04-20T11:07:15.948Z,11.40
2023-04-20T11:10:40.039Z,11.40
2023-04-20T11:14:12.420Z,11.60
2023-04-20T11:17:39.148Z,11.70
2023-04-20T11:21:01.206Z,11.90
2023-04-20T11:24:26.083Z,12.20
2023-04-20T11:27:48.050Z,12.40
2023-04-20T11:31:17.801Z,12.50
2023-04-20T11:34:40.041Z,12.40
2023-04-20T11:38:02.028Z,12.50
2023-04-20T11:41:24.008Z,12.60
2023-04-20T11:44:46.048Z,12.70
2023-04-20T11:48:08.068Z,12.80
2023-04-20T11:51:31.402Z,13.10
2023-04-20T11:54:53.388Z,13.10
2023-04-20T11:58:15.619Z,13.20
2023-04-20T12:01:38.306Z,13.10
2023-04-20T12:05:02.489Z,13.00
2023-04-20T12:08:24.815Z,12.80
2023-04-20T12:11:47.001Z,12.60
2023-04-20T12:15:09.389Z,12.70
2023-04-20T12:18:31.340Z,12.80
2023-04-20T12:21:53.336Z,12.60
2023-04-20T12:25:15.379Z,12.40
2023-04-20T12:28:37.399Z,12.40
2023-04-20T12:32:00.163Z,12.70
2023-04-20T12:35:22.548Z,12.60
2023-04-20T12:38:44.543Z,12.80
2023-04-20T12:42:06.529Z,12.80
2023-04-20T12:45:28.582Z,13.00
2023-04-20T12:48:50.640Z,13.40
2023-04-20T12:52:12.622Z,13.50
2023-04-20T12:55:35.065Z,13.60
2023-04-20T12:58:57.010Z,13.90
2023-04-20T13:02:19.169Z,14.50
2023-04-20T13:05:41.286Z,14.80
2023-04-20T13:09:04.268Z,15.30
2023-04-20T13:12:26.768Z,15.50
2023-04-20T13:15:48.797Z,15.50
2023-04-20T13:19:10.960Z,14.80
2023-04-20T13:22:33.293Z,14.80
2023-04-20T13:25:59.276Z,14.80
2023-04-20T13:29:21.426Z,14.70
2023-04-20T13:32:43.480Z,14.70
2023-04-20T13:36:05.731Z,14.70
2023-04-20T13:39:27.966Z,14.90
2023-04-20T13:42:49.979Z,14.90
2023-04-20T13:46:12.754Z,14.90
2023-04-20T13:49:34.788Z,14.90
2023-04-20T13:52:56.787Z,15.00
2023-04-20T13:56:18.977Z,15.00
2023-04-20T13:59:41.069Z,15.00
2023-04-20T14:03:03.394Z,14.90
2023-04-20T14:06:26.892Z,14.80
2023-04-20T14:09:49.256Z,14.80
2023-04-20T14:13:11.440Z,14.60
2023-04-20T14:16:33.818Z,14.60
2023-04-20T14:19:56.139Z,14.60
2023-04-20T14:23:21.978Z,14.60
2023-04-20T14:26:44.269Z,14.60
2023-04-20T14:30:07.175Z,14.60
2023-04-20T14:33:29.597Z,14.50
2023-04-20T14:36:51.649Z,14.50
2023-04-20T14:40:13.666Z,14.50
2023-04-20T14:43:35.792Z,14.60
2023-04-20T14:46:58.472Z,14.50
2023-04-20T14:50:20.756Z,14.50
2023-04-20T14:53:42.933Z,14.50
2023-04-20T14:57:04.982Z,14.50
2023-04-20T15:00:28.408Z,14.40
2023-04-20T15:03:50.804Z,14.40
2023-04-20T15:07:13.159Z,14.40
2023-04-20T15:10:36.527Z,14.50
2023-04-20T15:13:59.970Z,14.20
2023-04-20T15:17:22.075Z,14.00
2023-04-20T15:20:44.445Z,13.80
2023-04-20T15:24:06.827Z,13.80
2023-04-20T15:27:28.892Z,13.70
2023-04-20T15:30:51.258Z,13.60
2023-04-20T15:34:15.420Z,13.50
2023-04-20T15:37:38.106Z,13.50
2023-04-20T15:41:00.269Z,13.50
2023-04-20T15:44:22.255Z,13.40
2023-04-20T15:47:47.119Z,13.50
2023-04-20T15:51:09.167Z,13.40
2023-04-20T15:54:31.308Z,13.40
2023-04-20T15:57:57.299Z,13.40
2023-04-20T16:01:19.855Z,13.50
2023-04-20T16:04:42.117Z,13.50
2023-04-20T16:08:05.460Z,13.50
2023-04-20T16:11:27.488Z,13.50
2023-04-20T16:14:50.149Z,13.40
2023-04-20T16:18:13.188Z,13.50
2023-04-20T16:21:35.208Z,13.40
2023-04-20T16:24:58.009Z,13.40
2023-04-20T16:28:20.030Z,13.40
2023-04-20T16:31:42.107Z,13.40
2023-04-20T16:35:04.335Z,13.40
2023-04-20T16:38:26.579Z,13.30
2023-04-20T16:41:48.996Z,13.20
2023-04-20T16:45:11.277Z,13.20
2023-04-20T16:48:33.732Z,13.20
2023-04-20T16:51:56.517Z,13.10
2023-04-20T16:55:18.974Z,13.10
2023-04-20T16:58:41.037Z,13.10
2023-04-20T17:02:03.385Z,13.10
2023-04-20T17:05:25.464Z,13.20
2023-04-20T17:08:49.295Z,13.10
2023-04-20T17:12:11.307Z,13.10
2023-04-20T17:15:33.303Z,13.00
2023-04-20T17:18:56.675Z,13.10
2023-04-20T17:22:18.651Z,13.00
2023-04-20T17:25:42.230Z,13.00
2023-04-20T17:29:04.822Z,12.90
2023-04-20T17:32:27.058Z,12.80
2023-04-20T17:35:49.090Z,12.70
2023-04-20T17:39:11.324Z,12.60
2023-04-20T17:42:33.341Z,12.50
2023-04-20T17:45:55.370Z,12.20
2023-04-20T17:49:17.691Z,12.00
2023-04-20T17:52:40.443Z,11.70
2023-04-20T17:56:02.427Z,11.50
2023-04-20T17:59:25.214Z,11.40
2023-04-20T18:02:47.414Z,11.20
2023-04-20T18:06:09.555Z,11.10
2023-04-20T18:09:31.670Z,11.00
2023-04-20T18:12:53.994Z,11.00
2023-04-20T18:16:16.130Z,11.00
2023-04-20T18:19:38.170Z,10.90
2023-04-20T18:23:00.268Z,10.90
2023-04-20T18:26:22.401Z,10.90
2023-04-20T18:29:44.358Z,10.90
2023-04-20T18:33:06.497Z,10.80
2023-04-20T18:36:30.122Z,10.80
2023-04-20T18:39:52.133Z,10.80
2023-04-20T18:43:14.124Z,10.80
2023-04-20T18:46:36.153Z,10.80
2023-04-20T18:49:58.162Z,10.80
2023-04-20T18:53:20.395Z,10.80
2023-04-20T18:56:42.405Z,10.80
2023-04-20T19:00:09.326Z,10.70
2023-04-20T19:03:32.215Z,10.70
2023-04-20T19:06:54.311Z,10.70
2023-04-20T19:10:16.335Z,10.70
2023-04-20T19:13:44.132Z,10.70
2023-04-20T19:17:09.304Z,10.70
2023-04-20T19:20:31.413Z,10.70
2023-04-20T19:23:53.594Z,10.70
2023-04-20T19:27:16.371Z,10.70
2023-04-20T19:30:38.363Z,10.80
2023-04-20T19:34:00.480Z,10.70
2023-04-20T19:37:22.804Z,10.70
2023-04-20T19:40:45.522Z,10.70
2023-04-20T19:44:09.908Z,10.80
2023-04-20T19:47:31.984Z,10.80
2023-04-20T19:50:56.610Z,10.80
2023-04-20T19:54:18.736Z,10.80
2023-04-20T19:57:41.038Z,10.80
2023-04-20T20:01:03.864Z,10.80
2023-04-20T20:04:26.916Z,10.90
2023-04-20T20:07:49.073Z,10.80
2023-04-20T20:11:11.086Z,10.80
2023-04-20T20:14:33.114Z,10.80
2023-04-20T20:17:55.655Z,10.80
2023-04-20T20:21:17.713Z,10.90
2023-04-20T20:24:39.758Z,10.80
2023-04-20T20:28:02.258Z,10.80
2023-04-20T20:31:24.364Z,10.90
2023-04-20T20:34:46.345Z,10.80
2023-04-20T20:38:08.990Z,10.80
2023-04-20T20:41:31.046Z,10.80
2023-04-20T20:44:53.092Z,10.70
2023-04-20T20:48:15.140Z,10.70
2023-04-20T20:51:37.117Z,10.70
2023-04-20T20:54:59.112Z,10.70
2023-04-20T20:58:21.314Z,10.80
2023-04-20T21:01:43.316Z,10.70
2023-04-20T21:05:06.178Z,10.80
2023-04-20T21:08:28.170Z,10.80
2023-04-20T21:11:50.284Z,10.80
2023-04-20T21:15:12.635Z,10.80
2023-04-20T21:18:34.633Z,10.90
2023-04-20T21:21:56.648Z,10.80
2023-04-20T21:25:18.764Z,10.80
2023-04-20T21:28:40.873Z,10.90
2023-04-20T21:32:02.926Z,10.90
2023-04-20T21:35:25.093Z,10.80
2023-04-20T21:38:47.175Z,10.80
2023-04-20T21:42:09.403Z,10.80
2023-04-20T21:45:31.401Z,10.90
2023-04-20T21:48:53.501Z,10.80
2023-04-20T21:52:15.674Z,10.80
2023-04-20T21:55:37.726Z,10.70
2023-04-20T21:58:59.724Z,10.80
2023-04-20T22:02:21.772Z,10.80
2023-04-20T22:05:43.784Z,10.90
2023-04-20T22:09:05.788Z,10.90
2023-04-20T22:12:38.257Z,11.00
2023-04-20T22:16:01.130Z,11.00
2023-04-20T22:19:23.671Z,10.90
2023-04-20T22:22:46.107Z,10.90
2023-04-20T22:26:08.608Z,10.80
2023-04-20T22:29:30.605Z,10.80
2023-04-20T22:32:52.625Z,10.80
2023-04-20T22:36:14.757Z,10.70
2023-04-20T22:39:36.699Z,10.60
2023-04-20T22:42:58.703Z,10.60
2023-04-20T22:46:21.407Z,10.70
2023-04-20T22:49:43.606Z,10.70
2023-04-20T22:53:05.652Z,10.70
2023-04-20T22:56:29.378Z,10.80
2023-04-20T22:59:52.423Z,10.80
2023-04-20T23:03:14.661Z,10.70
2023-04-20T23:06:37.866Z,10.80
2023-04-20T23:10:00.060Z,10.80
2023-04-20T23:13:22.830Z,10.80
2023-04-20T23:16:44.951Z,10.70
2023-04-20T23:20:10.466Z,10.70
2023-04-20T23:23:32.507Z,10.60
2023-04-20T23:26:54.799Z,10.50
2023-04-20T23:30:17.105Z,10.50
2023-04-20T23:33:39.065Z,10.60
2023-04-20T23:37:01.192Z,10.60
2023-04-20T23:40:23.372Z,10.60
2023-04-20T23:43:45.376Z,10.60
2023-04-20T23:47:07.383Z,10.60
2023-04-20T23:50:29.365Z,10.50
2023-04-20T23:53:51.342Z,10.50
2023-04-20T23:57:13.403Z,10.30
